createdAt,value
2019-05-17T00:00:57.398Z,9.20
2019-05-17T00:03:27.030Z,9.20
2019-05-17T00:05:56.985Z,9.20
2019-05-17T00:08:33.908Z,9.10
2019-05-17T00:10:57.155Z,9.10
2019-05-17T00:13:26.904Z,9.10
2019-05-17T00:15:56.665Z,9.10
2019-05-17T00:18:26.495Z,9.10
2019-05-17T00:20:57.004Z,9.10
2019-05-17T00:23:26.873Z,9.10
2019-05-17T00:25:56.452Z,9.10
2019-05-17T00:28:26.962Z,9.00
2019-05-17T00:30:57.171Z,9.00
2019-05-17T00:33:27.229Z,9.00
2019-05-17T00:35:56.324Z,9.00
2019-05-17T00:38:27.366Z,9.00
2019-05-17T00:40:56.944Z,9.00
2019-05-17T00:43:27.867Z,8.90
2019-05-17T00:45:57.470Z,8.90
2019-05-17T00:48:26.598Z,8.90
2019-05-17T00:51:01.275Z,8.90
2019-05-17T00:53:26.895Z,8.90
2019-05-17T00:55:57.340Z,8.90
2019-05-17T00:58:26.428Z,8.90
2019-05-17T01:00:57.046Z,8.90
2019-05-17T01:03:26.949Z,8.90
2019-05-17T01:05:56.713Z,8.90
2019-05-17T01:08:26.528Z,8.90
2019-05-17T01:10:56.618Z,8.90
2019-05-17T01:13:27.643Z,8.90
2019-05-17T01:15:56.725Z,8.90
2019-05-17T01:18:26.998Z,8.90
2019-05-17T01:20:56.816Z,8.90
2019-05-17T01:23:27.115Z,8.90
2019-05-17T01:25:56.779Z,8.90
2019-05-17T01:28:27.047Z,8.80
2019-05-17T01:30:57.026Z,8.80
2019-05-17T01:33:26.583Z,8.80
2019-05-17T01:35:57.264Z,8.80
2019-05-17T01:38:28.118Z,8.80
2019-05-17T01:40:57.433Z,8.80
2019-05-17T01:43:27.381Z,8.80
2019-05-17T01:45:57.386Z,8.80
2019-05-17T01:48:27.945Z,8.80
2019-05-17T01:50:56.980Z,8.80
2019-05-17T01:53:27.134Z,8.80
2019-05-17T01:55:56.835Z,8.80
2019-05-17T01:58:27.421Z,8.80
2019-05-17T02:00:57.310Z,8.80
2019-05-17T02:03:26.865Z,8.80
2019-05-17T02:05:56.603Z,8.80
2019-05-17T02:08:26.482Z,8.70
2019-05-17T02:10:57.372Z,8.70
2019-05-17T02:13:26.917Z,8.70
2019-05-17T02:15:56.476Z,8.70
2019-05-17T02:18:26.584Z,8.70
2019-05-17T02:20:57.043Z,8.70
2019-05-17T02:23:27.000Z,8.70
2019-05-17T02:25:57.163Z,8.70
2019-05-17T02:28:26.448Z,8.70
2019-05-17T02:30:55.466Z,8.70
2019-05-17T02:33:24.663Z,8.70
2019-05-17T02:35:53.973Z,8.70
2019-05-17T02:38:23.012Z,8.70
2019-05-17T02:40:53.635Z,8.70
2019-05-17T02:43:23.633Z,8.70
2019-05-17T02:45:52.983Z,8.60
2019-05-17T02:48:23.279Z,8.60
2019-05-17T02:50:53.285Z,8.60
2019-05-17T02:53:23.103Z,8.60
2019-05-17T02:55:54.042Z,8.60
2019-05-17T02:58:23.543Z,8.60
2019-05-17T03:00:53.381Z,8.60
2019-05-17T03:03:23.684Z,8.60
2019-05-17T03:05:53.578Z,8.60
2019-05-17T03:08:23.653Z,8.60
2019-05-17T03:10:53.684Z,8.60
2019-05-17T03:13:23.475Z,8.60
2019-05-17T03:15:53.036Z,8.60
2019-05-17T03:18:22.857Z,8.70
2019-05-17T03:20:52.710Z,8.70
2019-05-17T03:23:23.518Z,8.70
2019-05-17T03:25:52.835Z,8.60
2019-05-17T03:28:23.655Z,8.60
2019-05-17T03:30:56.766Z,8.70
2019-05-17T03:33:27.086Z,8.70
2019-05-17T03:35:57.344Z,8.60
2019-05-17T03:38:26.725Z,8.60
2019-05-17T03:41:12.389Z,8.60
2019-05-17T03:43:26.808Z,8.60
2019-05-17T03:45:56.093Z,8.60
2019-05-17T03:48:25.431Z,8.60
2019-05-17T03:50:54.950Z,8.70
2019-05-17T03:53:23.953Z,8.60
2019-05-17T03:55:53.940Z,8.70
2019-05-17T03:58:23.627Z,8.70
2019-05-17T04:00:53.388Z,8.70
2019-05-17T04:03:23.141Z,8.70
2019-05-17T04:05:53.001Z,8.70
2019-05-17T04:08:23.084Z,8.60
2019-05-17T04:10:53.017Z,8.70
2019-05-17T04:13:23.503Z,8.70
2019-05-17T04:15:53.227Z,8.70
2019-05-17T04:18:23.463Z,8.70
2019-05-17T04:20:52.975Z,8.70
2019-05-17T04:23:23.230Z,8.70
2019-05-17T04:25:53.374Z,8.70
2019-05-17T04:28:23.094Z,8.70
2019-05-17T04:30:52.918Z,8.70
2019-05-17T04:33:23.350Z,8.70
2019-05-17T04:35:54.059Z,8.70
2019-05-17T04:38:24.139Z,8.70
2019-05-17T04:40:53.910Z,8.80
2019-05-17T04:43:23.471Z,8.80
2019-05-17T04:45:53.650Z,8.70
2019-05-17T04:48:23.357Z,8.80
2019-05-17T04:50:53.707Z,8.80
2019-05-17T04:53:23.470Z,8.80
2019-05-17T04:55:53.988Z,8.80
2019-05-17T04:58:23.428Z,8.80
2019-05-17T05:00:53.574Z,8.80
2019-05-17T05:03:23.453Z,8.80
2019-05-17T05:05:53.497Z,8.80
2019-05-17T05:08:22.993Z,8.80
2019-05-17T05:10:53.588Z,8.80
2019-05-17T05:13:22.925Z,8.80
2019-05-17T05:15:52.289Z,8.80
2019-05-17T05:18:22.079Z,8.80
2019-05-17T05:20:52.750Z,8.80
2019-05-17T05:23:23.766Z,8.90
2019-05-17T05:25:53.010Z,8.90
2019-05-17T05:28:22.620Z,8.90
2019-05-17T05:30:52.679Z,9.00
2019-05-17T05:33:22.308Z,9.00
2019-05-17T05:35:51.792Z,9.00
2019-05-17T05:38:21.607Z,9.00
2019-05-17T05:40:52.167Z,9.00
2019-05-17T05:43:22.579Z,9.00
2019-05-17T05:45:53.634Z,9.10
2019-05-17T05:48:22.365Z,9.10
2019-05-17T05:50:52.140Z,9.10
2019-05-17T05:53:21.850Z,9.10
2019-05-17T05:55:51.799Z,9.10
2019-05-17T05:58:23.900Z,9.10
2019-05-17T06:00:53.127Z,9.10
2019-05-17T06:03:22.637Z,9.10
2019-05-17T06:05:52.493Z,9.10
2019-05-17T06:08:22.713Z,9.10
2019-05-17T06:10:53.156Z,9.10
2019-05-17T06:13:22.236Z,9.10
2019-05-17T06:15:51.751Z,9.10
2019-05-17T06:18:22.725Z,9.20
2019-05-17T06:20:52.407Z,9.20
2019-05-17T06:23:23.497Z,9.20
2019-05-17T06:25:52.430Z,9.20
2019-05-17T06:28:22.300Z,9.30
2019-05-17T06:30:52.147Z,9.30
2019-05-17T06:33:30.475Z,9.30
2019-05-17T06:35:52.580Z,9.40
2019-05-17T06:38:22.439Z,9.40
2019-05-17T06:40:52.402Z,9.40
2019-05-17T06:43:21.665Z,9.40
2019-05-17T06:45:52.239Z,9.50
2019-05-17T06:48:22.482Z,9.50
2019-05-17T06:50:52.061Z,9.50
2019-05-17T06:53:21.992Z,9.50
2019-05-17T06:55:53.437Z,9.50
2019-05-17T06:58:22.301Z,9.60
2019-05-17T07:00:52.191Z,9.60
2019-05-17T07:03:21.044Z,9.60
2019-05-17T07:05:51.826Z,9.60
2019-05-17T07:08:21.004Z,9.60
2019-05-17T07:10:50.352Z,9.60
2019-05-17T07:13:19.875Z,9.60
2019-05-17T07:15:51.000Z,9.70
2019-05-17T07:18:19.505Z,9.70
2019-05-17T07:20:50.182Z,9.80
2019-05-17T07:23:19.758Z,9.80
2019-05-17T07:25:50.376Z,9.90
2019-05-17T07:28:20.045Z,9.90
2019-05-17T07:30:50.396Z,9.90
2019-05-17T07:33:19.886Z,9.90
2019-05-17T07:35:50.133Z,9.90
2019-05-17T07:38:19.896Z,10.00
2019-05-17T07:40:50.196Z,10.00
2019-05-17T07:43:20.805Z,10.00
2019-05-17T07:45:50.160Z,10.00
2019-05-17T07:48:19.996Z,10.00
2019-05-17T07:50:50.441Z,10.10
2019-05-17T07:53:20.344Z,10.00
2019-05-17T07:55:50.599Z,10.10
2019-05-17T07:58:21.391Z,10.10
2019-05-17T08:00:51.077Z,10.20
2019-05-17T08:03:21.276Z,10.20
2019-05-17T08:05:51.035Z,10.20
2019-05-17T08:08:20.812Z,10.20
2019-05-17T08:10:50.971Z,10.30
2019-05-17T08:13:27.355Z,10.30
2019-05-17T08:15:50.922Z,10.40
2019-05-17T08:18:20.387Z,10.40
2019-05-17T08:20:50.222Z,10.50
2019-05-17T08:23:20.139Z,10.50
2019-05-17T08:25:53.656Z,10.50
2019-05-17T08:28:21.550Z,10.60
2019-05-17T08:30:50.764Z,10.60
2019-05-17T08:33:19.595Z,10.60
2019-05-17T08:35:49.498Z,10.60
2019-05-17T08:38:19.718Z,10.70
2019-05-17T08:40:51.013Z,10.70
2019-05-17T08:43:21.382Z,10.70
2019-05-17T08:45:50.863Z,10.80
2019-05-17T08:48:20.620Z,10.80
2019-05-17T08:50:49.726Z,10.80
2019-05-17T08:53:19.917Z,10.80
2019-05-17T08:55:50.156Z,10.90
2019-05-17T08:58:21.514Z,10.90
2019-05-17T09:00:50.522Z,10.70
2019-05-17T09:03:19.963Z,10.70
2019-05-17T09:05:52.650Z,10.70
2019-05-17T09:08:20.566Z,10.70
2019-05-17T09:10:50.515Z,10.70
2019-05-17T09:13:19.709Z,10.70
2019-05-17T09:16:01.872Z,10.70
2019-05-17T09:18:30.710Z,10.70
2019-05-17T09:21:00.285Z,10.70
2019-05-17T09:23:30.477Z,10.70
2019-05-17T09:25:59.861Z,10.80
2019-05-17T09:28:29.960Z,10.80
2019-05-17T09:30:59.934Z,10.80
2019-05-17T09:33:30.108Z,10.80
2019-05-17T09:36:00.925Z,10.80
2019-05-17T09:38:30.231Z,10.80
2019-05-17T09:40:59.949Z,10.80
2019-05-17T09:43:29.509Z,10.80
2019-05-17T09:46:01.618Z,10.80
2019-05-17T09:48:30.683Z,10.90
2019-05-17T09:51:00.312Z,10.90
2019-05-17T09:53:30.727Z,11.00
2019-05-17T09:56:00.567Z,11.00
2019-05-17T09:58:30.010Z,11.10
2019-05-17T10:01:01.399Z,11.10
2019-05-17T10:03:30.723Z,11.20
2019-05-17T10:06:00.186Z,11.30
2019-05-17T10:08:29.183Z,11.40
2019-05-17T10:11:05.860Z,11.50
2019-05-17T10:13:28.672Z,11.60
2019-05-17T10:15:57.526Z,11.70
2019-05-17T10:18:26.526Z,11.80
2019-05-17T10:20:55.661Z,11.90
2019-05-17T10:23:24.511Z,11.90
2019-05-17T10:25:53.784Z,12.00
2019-05-17T10:28:23.112Z,12.10
2019-05-17T10:30:52.442Z,12.20
2019-05-17T10:33:21.341Z,12.30
2019-05-17T10:35:50.081Z,12.40
2019-05-17T10:38:19.498Z,12.50
2019-05-17T10:40:50.053Z,12.60
2019-05-17T10:43:20.427Z,12.70
2019-05-17T10:45:49.425Z,12.80
2019-05-17T10:48:20.989Z,12.80
2019-05-17T10:50:49.707Z,12.90
2019-05-17T10:53:20.358Z,12.90
2019-05-17T10:55:49.951Z,13.00
2019-05-17T10:58:21.301Z,13.00
2019-05-17T11:00:50.174Z,13.00
2019-05-17T11:03:20.275Z,13.00
2019-05-17T11:05:50.271Z,13.00
2019-05-17T11:08:20.005Z,13.10
2019-05-17T11:10:50.158Z,13.10
2019-05-17T11:13:19.773Z,13.20
2019-05-17T11:15:48.536Z,13.20
2019-05-17T11:18:17.407Z,13.30
2019-05-17T11:20:46.297Z,13.30
2019-05-17T11:23:15.198Z,13.40
2019-05-17T11:25:45.936Z,13.50
2019-05-17T11:28:14.795Z,13.50
2019-05-17T11:30:43.656Z,13.50
2019-05-17T11:33:12.747Z,13.60
2019-05-17T11:35:41.580Z,13.70
2019-05-17T11:38:10.388Z,13.80
2019-05-17T11:40:39.402Z,13.90
2019-05-17T11:43:08.315Z,13.90
2019-05-17T11:45:37.406Z,14.00
2019-05-17T11:48:06.195Z,14.10
2019-05-17T11:50:35.027Z,14.20
2019-05-17T11:53:04.124Z,14.30
2019-05-17T11:55:33.109Z,14.40
2019-05-17T11:58:02.128Z,14.40
2019-05-17T12:00:31.385Z,14.40
2019-05-17T12:03:00.572Z,14.50
2019-05-17T12:05:29.444Z,14.50
2019-05-17T12:07:58.456Z,14.60
2019-05-17T12:10:27.900Z,14.80
2019-05-17T12:12:57.428Z,14.80
2019-05-17T12:15:42.167Z,14.90
2019-05-17T12:17:57.370Z,15.00
2019-05-17T12:20:26.265Z,15.00
2019-05-17T12:22:55.039Z,15.00
2019-05-17T12:25:23.841Z,15.10
2019-05-17T12:27:52.668Z,15.00
2019-05-17T12:30:21.583Z,15.00
2019-05-17T12:32:50.878Z,15.00
2019-05-17T12:35:20.034Z,15.10
2019-05-17T12:37:49.090Z,15.10
2019-05-17T12:40:18.708Z,15.10
2019-05-17T12:42:48.443Z,15.20
2019-05-17T12:45:17.605Z,15.20
2019-05-17T12:47:46.672Z,15.20
2019-05-17T12:50:15.850Z,15.20
2019-05-17T12:52:46.271Z,15.30
2019-05-17T12:55:15.408Z,15.40
2019-05-17T12:57:44.310Z,15.50
2019-05-17T13:00:13.498Z,15.60
2019-05-17T13:02:42.838Z,15.80
2019-05-17T13:05:11.959Z,15.90
2019-05-17T13:07:40.834Z,16.00
2019-05-17T13:10:10.087Z,16.10
2019-05-17T13:12:39.152Z,16.20
2019-05-17T13:15:08.520Z,16.20
2019-05-17T13:17:37.320Z,16.30
2019-05-17T13:20:06.936Z,16.30
2019-05-17T13:22:35.942Z,16.30
2019-05-17T13:25:05.586Z,16.30
2019-05-17T13:27:34.354Z,16.40
2019-05-17T13:30:03.333Z,16.40
2019-05-17T13:32:32.383Z,16.40
2019-05-17T13:35:01.188Z,16.50
2019-05-17T13:37:30.019Z,16.50
2019-05-17T13:39:58.861Z,16.60
2019-05-17T13:42:27.958Z,16.70
2019-05-17T13:44:56.961Z,16.70
2019-05-17T13:47:25.724Z,16.60
2019-05-17T13:49:54.762Z,16.50
2019-05-17T13:52:23.818Z,16.50
2019-05-17T13:54:52.605Z,16.50
2019-05-17T13:57:21.365Z,16.50
2019-05-17T13:59:50.130Z,16.60
2019-05-17T14:02:19.036Z,16.80
2019-05-17T14:04:47.813Z,16.90
2019-05-17T14:07:16.735Z,17.10
2019-05-17T14:09:45.500Z,17.10
2019-05-17T14:12:14.534Z,17.20
2019-05-17T14:14:43.799Z,17.30
2019-05-17T14:17:13.128Z,17.30
2019-05-17T14:19:41.899Z,17.30
2019-05-17T14:22:10.719Z,17.20
2019-05-17T14:24:39.516Z,17.20
2019-05-17T14:27:08.506Z,17.10
2019-05-17T14:29:37.566Z,17.00
2019-05-17T14:32:06.554Z,16.90
2019-05-17T14:34:36.238Z,16.90
2019-05-17T14:37:07.492Z,16.80
2019-05-17T14:39:35.837Z,16.90
2019-05-17T14:42:04.965Z,16.90
2019-05-17T14:44:33.974Z,17.00
2019-05-17T14:47:03.002Z,17.30
2019-05-17T14:49:32.154Z,17.60
2019-05-17T14:52:01.192Z,17.70
2019-05-17T14:54:30.195Z,17.90
2019-05-17T14:56:59.520Z,18.20
2019-05-17T14:59:28.529Z,18.40
2019-05-17T15:01:57.374Z,18.50
2019-05-17T15:04:28.364Z,18.40
2019-05-17T15:06:57.642Z,18.30
2019-05-17T15:09:26.815Z,18.20
2019-05-17T15:11:56.685Z,18.10
2019-05-17T15:14:29.458Z,17.90
2019-05-17T15:16:56.566Z,17.80
2019-05-17T15:19:25.651Z,17.70
2019-05-17T15:21:54.507Z,17.60
2019-05-17T15:24:23.358Z,17.50
2019-05-17T15:27:04.692Z,17.50
2019-05-17T15:29:22.725Z,17.40
2019-05-17T15:31:52.252Z,17.40
2019-05-17T15:34:22.449Z,17.40
2019-05-17T15:36:51.808Z,17.30
2019-05-17T15:39:20.799Z,17.30
2019-05-17T15:41:49.651Z,17.20
2019-05-17T15:44:18.574Z,17.10
2019-05-17T15:46:48.296Z,17.00
2019-05-17T15:49:17.304Z,17.00
2019-05-17T15:51:46.572Z,17.00
2019-05-17T15:54:15.413Z,16.90
2019-05-17T15:56:44.173Z,16.90
2019-05-17T15:59:12.946Z,16.90
2019-05-17T16:01:42.685Z,16.90
2019-05-17T16:04:11.680Z,16.90
2019-05-17T16:06:40.712Z,16.90
2019-05-17T16:09:09.840Z,16.80
2019-05-17T16:11:38.883Z,16.90
2019-05-17T16:14:07.735Z,16.90
2019-05-17T16:16:36.845Z,16.90
2019-05-17T16:19:05.759Z,16.90
2019-05-17T16:21:34.791Z,17.00
2019-05-17T16:24:04.075Z,17.10
2019-05-17T16:26:33.402Z,17.10
2019-05-17T16:29:02.370Z,17.10
2019-05-17T16:31:31.364Z,17.20
2019-05-17T16:34:00.134Z,17.10
2019-05-17T16:36:29.198Z,17.10
2019-05-17T16:38:59.366Z,17.00
2019-05-17T16:41:28.456Z,16.90
2019-05-17T16:43:57.518Z,16.90
2019-05-17T16:46:26.387Z,16.80
2019-05-17T16:48:55.260Z,16.80
2019-05-17T16:51:24.400Z,16.80
2019-05-17T16:53:53.394Z,16.80
2019-05-17T16:56:23.090Z,16.80
2019-05-17T16:58:52.197Z,16.80
2019-05-17T17:01:20.986Z,16.80
2019-05-17T17:03:50.174Z,16.70
2019-05-17T17:06:19.178Z,16.70
2019-05-17T17:08:47.937Z,16.70
2019-05-17T17:11:17.060Z,16.70
2019-05-17T17:13:46.130Z,16.70
2019-05-17T17:16:15.046Z,16.60
2019-05-17T17:18:44.123Z,16.60
2019-05-17T17:21:12.996Z,16.50
2019-05-17T17:23:42.054Z,16.50
2019-05-17T17:26:10.947Z,16.40
2019-05-17T17:28:39.782Z,16.40
2019-05-17T17:31:12.815Z,16.40
2019-05-17T17:33:41.640Z,16.30
2019-05-17T17:36:10.658Z,16.30
2019-05-17T17:38:39.546Z,16.30
2019-05-17T17:41:08.475Z,16.20
2019-05-17T17:43:37.298Z,16.10
2019-05-17T17:46:06.429Z,16.10
2019-05-17T17:48:35.197Z,16.00
2019-05-17T17:51:04.293Z,16.00
2019-05-17T17:53:33.310Z,16.00
2019-05-17T17:56:02.398Z,15.90
2019-05-17T17:58:31.836Z,15.80
2019-05-17T18:01:00.915Z,15.80
2019-05-17T18:03:29.717Z,15.80
2019-05-17T18:05:58.470Z,15.80
2019-05-17T18:08:27.344Z,15.70
2019-05-17T18:10:56.191Z,15.70
2019-05-17T18:13:25.608Z,15.70
2019-05-17T18:15:54.616Z,15.60
2019-05-17T18:18:23.465Z,15.60
2019-05-17T18:20:52.219Z,15.50
2019-05-17T18:23:23.556Z,15.50
2019-05-17T18:25:52.564Z,15.50
2019-05-17T18:28:21.801Z,15.40
2019-05-17T18:30:50.948Z,15.40
2019-05-17T18:33:20.042Z,15.30
2019-05-17T18:35:49.120Z,15.30
2019-05-17T18:38:21.229Z,15.20
2019-05-17T18:40:49.978Z,15.20
2019-05-17T18:43:18.730Z,15.10
2019-05-17T18:45:47.941Z,15.10
2019-05-17T18:48:16.950Z,15.00
2019-05-17T18:50:45.850Z,15.00
2019-05-17T18:53:17.204Z,14.90
2019-05-17T18:55:46.750Z,14.90
2019-05-17T18:58:15.750Z,14.80
2019-05-17T19:00:45.167Z,14.80
2019-05-17T19:03:13.910Z,14.70
2019-05-17T19:05:45.272Z,14.60
2019-05-17T19:08:13.807Z,14.60
2019-05-17T19:10:42.619Z,14.50
2019-05-17T19:13:11.606Z,14.50
2019-05-17T19:15:40.759Z,14.40
2019-05-17T19:18:09.846Z,14.40
2019-05-17T19:20:38.698Z,14.40
2019-05-17T19:23:07.521Z,14.30
2019-05-17T19:25:36.627Z,14.30
2019-05-17T19:28:05.618Z,14.20
2019-05-17T19:30:34.715Z,14.20
2019-05-17T19:33:03.532Z,14.10
2019-05-17T19:35:32.450Z,14.10
2019-05-17T19:38:01.799Z,14.00
2019-05-17T19:40:30.788Z,14.00
2019-05-17T19:42:59.618Z,13.90
2019-05-17T19:45:28.441Z,13.90
2019-05-17T19:47:57.331Z,13.80
2019-05-17T19:50:27.015Z,13.80
2019-05-17T19:52:55.760Z,13.80
2019-05-17T19:55:26.330Z,13.70
2019-05-17T19:57:55.376Z,13.60
2019-05-17T20:00:24.406Z,13.60
2019-05-17T20:02:53.479Z,13.50
2019-05-17T20:05:22.370Z,13.50
2019-05-17T20:07:51.721Z,13.40
2019-05-17T20:10:21.135Z,13.40
2019-05-17T20:12:50.002Z,13.30
2019-05-17T20:15:32.347Z,13.30
2019-05-17T20:17:49.900Z,13.20
2019-05-17T20:20:18.818Z,13.20
2019-05-17T20:22:47.664Z,13.20
2019-05-17T20:25:17.279Z,13.10
2019-05-17T20:27:46.374Z,13.10
2019-05-17T20:30:16.982Z,13.10
2019-05-17T20:32:46.245Z,13.00
2019-05-17T20:35:17.924Z,13.00
2019-05-17T20:37:46.299Z,13.00
2019-05-17T20:40:15.551Z,12.90
2019-05-17T20:42:44.634Z,12.90
2019-05-17T20:45:13.729Z,12.90
2019-05-17T20:47:42.579Z,12.80
2019-05-17T20:50:12.244Z,12.80
2019-05-17T20:52:41.078Z,12.80
2019-05-17T20:55:10.428Z,12.70
2019-05-17T20:57:39.220Z,12.70
2019-05-17T21:00:11.080Z,12.60
2019-05-17T21:02:40.177Z,12.60
2019-05-17T21:05:11.079Z,12.50
2019-05-17T21:07:40.103Z,12.50
2019-05-17T21:10:08.997Z,12.50
2019-05-17T21:12:37.901Z,12.40
2019-05-17T21:15:06.838Z,12.40
2019-05-17T21:17:35.609Z,12.30
2019-05-17T21:20:04.752Z,12.30
2019-05-17T21:22:33.890Z,12.20
2019-05-17T21:25:03.043Z,12.20
2019-05-17T21:27:32.465Z,12.10
2019-05-17T21:30:01.908Z,12.00
2019-05-17T21:32:31.212Z,12.00
2019-05-17T21:34:59.978Z,11.90
2019-05-17T21:37:28.786Z,11.90
2019-05-17T21:39:57.823Z,11.90
2019-05-17T21:42:26.737Z,11.80
2019-05-17T21:44:55.802Z,11.80
2019-05-17T21:47:25.223Z,11.70
2019-05-17T21:49:54.354Z,11.60
2019-05-17T21:52:24.747Z,11.60
2019-05-17T21:54:53.690Z,11.50
2019-05-17T21:57:22.481Z,11.50
2019-05-17T21:59:51.463Z,11.40
2019-05-17T22:02:20.473Z,11.40
2019-05-17T22:04:49.333Z,11.40
2019-05-17T22:07:18.614Z,11.30
2019-05-17T22:09:48.024Z,11.30
2019-05-17T22:12:17.406Z,11.20
2019-05-17T22:14:46.147Z,11.20
2019-05-17T22:17:15.499Z,11.10
2019-05-17T22:19:44.738Z,11.10
2019-05-17T22:22:13.776Z,11.00
2019-05-17T22:24:42.531Z,10.90
2019-05-17T22:27:11.526Z,10.90
2019-05-17T22:29:40.668Z,10.80
2019-05-17T22:32:09.450Z,10.80
2019-05-17T22:34:38.556Z,10.70
2019-05-17T22:37:07.585Z,10.70
2019-05-17T22:39:37.019Z,10.60
2019-05-17T22:42:06.093Z,10.60
2019-05-17T22:44:35.197Z,10.60
2019-05-17T22:47:04.442Z,10.50
2019-05-17T22:49:34.122Z,10.50
2019-05-17T22:52:02.894Z,10.40
2019-05-17T22:54:31.698Z,10.40
2019-05-17T22:57:00.442Z,10.40
2019-05-17T22:59:29.528Z,10.40
2019-05-17T23:01:58.603Z,10.40
2019-05-17T23:04:27.582Z,10.40
2019-05-17T23:06:56.325Z,10.40
2019-05-17T23:09:25.149Z,10.40
2019-05-17T23:11:54.277Z,10.40
2019-05-17T23:14:23.143Z,10.40
2019-05-17T23:16:52.309Z,10.30
2019-05-17T23:19:21.177Z,10.30
2019-05-17T23:21:50.014Z,10.30
2019-05-17T23:24:19.143Z,10.30
2019-05-17T23:26:48.235Z,10.20
2019-05-17T23:29:17.330Z,10.20
2019-05-17T23:31:46.087Z,10.20
2019-05-17T23:34:14.874Z,10.10
2019-05-17T23:36:43.623Z,10.10
2019-05-17T23:39:12.793Z,10.10
2019-05-17T23:41:41.556Z,10.00
2019-05-17T23:44:10.682Z,10.00
2019-05-17T23:46:39.728Z,9.90
2019-05-17T23:49:08.498Z,9.90
2019-05-17T23:51:37.647Z,9.90
2019-05-17T23:54:06.393Z,9.90
2019-05-17T23:56:35.352Z,9.90
2019-05-17T23:59:04.238Z,9.90
